Rutland, IL (61358)

2:42 PM CDT on August 17, 2017 (GMT -0500)
Big D's home | | Change Station

Elev 738 ft 41.04 °N, 89.23 °W | Updated 10 seconds ago

Mostly Cloudy
Mostly Cloudy
84.6 °F
Feels Like 92 °F
N
4.9
Wind Variable Wind from West
Gusts 10.5 mph

Today
High -- | Low -- °F
--% Chance of Precip.
Yesterday
High -- | Low -- °F
Precip. -- in
Pressure 29.78 in
Visibility 10.0 miles
Clouds Scattered Clouds 3500 ft
Mostly Cloudy 4200 ft
Mostly Cloudy 4900 ft
Heat Index 92 °F
Dew Point 74 °F
Humidity 70%
Rainfall 0.00 in
Snow Depth Not available.
6:08 AM 7:51 PM
Waning Crescent, 20% visible
METAR KC75 171935Z AUTO 28011G17KT 10SM SCT035 BKN042 BKN049 28/19 A2978 RMK AO2 T02760188
Pressure 29.78 in
Visibility 10.0 miles
Clouds Scattered Clouds 3500 ft
Mostly Cloudy 4200 ft
Mostly Cloudy 4900 ft
Heat Index 92 °F
Dew Point 74 °F
Humidity 70%
Rainfall 0.00 in
Snow Depth Not available.
6:08 AM 7:51 PM
Waning Crescent, 20% visible
METAR KC75 171935Z AUTO 28011G17KT 10SM SCT035 BKN042 BKN049 28/19 A2978 RMK AO2 T02760188

Get Severe Weather Alerts

Thanks for signing up!

Be on the lookout for a verification email in your inbox.

You'll start receiving the daily forecast at 6 AM.

×

10-Day Weather Forecast

Almanac

Astronomy

Aug. 17, 2017 Rise Set
Actual Time
Civil Twilight
Nautical Twilight
Astronomical Twilight
Moon
Length of Visible Light
Length of Day
Tomorrow will be .
, % of the Moon is Illuminated

Today's Extremes

State Highs State Lows

Community

WunderPhotos

Category 6

Welcome to Category 6. This is the collective home for Weather Underground's featured writeups by Dr. Jeff Masters (right), Bob Henson (left), Chris Burt, and other regular contributors.

Nearby

Air Quality

  Air Quality AQ Index Pollutant
Not available.

Snow Depth

Station Depth Elevation

Earthquake Activity

City Distance Mag. Time & Date
Minimum magnitude displayed is 2.5.

Coastal Water Temperatures

Place Temperature

Stations

Nearby Weather Stations

Station Location Temp. Windchill Dew Point Humidity Wind Precip. Elev Updated Type
                   

Watches & Warnings

There are currently no watches in effect.